createdAt,value
2018-11-21T00:04:19.405Z,34.67
2018-11-21T00:09:21.331Z,33.98
2018-11-21T00:14:23.488Z,36.28
2018-11-21T00:19:26.576Z,34.67
2018-11-21T00:24:45.975Z,32.73
2018-11-21T00:29:57.908Z,34.58
2018-11-21T00:34:59.961Z,34.25
2018-11-21T00:40:02.048Z,34.38
2018-11-21T00:45:05.128Z,34.55
2018-11-21T00:50:07.351Z,39.00
2018-11-21T00:55:09.506Z,37.78
2018-11-21T01:00:12.112Z,39.55
2018-11-21T01:05:17.150Z,38.75
2018-11-21T01:10:22.989Z,32.30
2018-11-21T01:15:24.857Z,38.80
2018-11-21T01:20:26.779Z,40.33
2018-11-21T01:25:28.776Z,41.77
2018-11-21T01:30:30.629Z,43.95
2018-11-21T01:35:32.554Z,39.30
2018-11-21T01:40:34.580Z,39.70
2018-11-21T01:45:36.587Z,38.17
2018-11-21T01:50:38.924Z,41.80
2018-11-21T01:55:40.978Z,46.25
2018-11-21T02:00:43.068Z,42.90
2018-11-21T02:05:45.005Z,41.15
2018-11-21T02:10:46.951Z,44.50
2018-11-21T02:15:48.998Z,44.35
2018-11-21T02:20:52.357Z,42.95
2018-11-21T02:25:54.262Z,42.48
2018-11-21T02:30:56.434Z,42.48
2018-11-21T02:35:58.394Z,44.08
2018-11-21T02:41:00.373Z,36.75
2018-11-21T02:46:02.251Z,40.28
2018-11-21T02:51:04.410Z,44.03
2018-11-21T02:56:06.377Z,44.40
2018-11-21T03:01:08.360Z,40.98
2018-11-21T03:06:10.301Z,44.55
2018-11-21T03:11:12.297Z,41.95
2018-11-21T03:16:14.251Z,45.43
2018-11-21T03:21:16.257Z,45.28
2018-11-21T03:26:18.215Z,41.05
2018-11-21T03:31:20.149Z,42.03
2018-11-21T03:36:22.075Z,45.48
2018-11-21T03:41:25.182Z,46.30
2018-11-21T03:46:30.613Z,42.95
2018-11-21T03:51:32.586Z,46.55
2018-11-21T03:56:34.928Z,45.38
2018-11-21T04:01:37.252Z,47.88
2018-11-21T04:06:39.123Z,43.63
2018-11-21T04:11:41.062Z,41.80
2018-11-21T04:16:42.977Z,49.75
2018-11-21T04:21:44.938Z,51.25
2018-11-21T04:26:47.084Z,49.20
2018-11-21T04:31:49.268Z,48.85
2018-11-21T04:36:51.142Z,49.88
2018-11-21T04:41:53.416Z,44.08
2018-11-21T04:46:55.333Z,45.55
2018-11-21T04:51:57.604Z,48.17
2018-11-21T04:56:59.539Z,43.70
2018-11-21T05:02:01.398Z,47.35
2018-11-21T05:07:03.436Z,43.58
2018-11-21T05:12:05.695Z,45.45
2018-11-21T05:17:07.555Z,45.85
2018-11-21T05:22:09.679Z,43.58
2018-11-21T05:27:11.567Z,46.20
2018-11-21T05:32:13.471Z,46.28
2018-11-21T05:37:15.454Z,40.52
2018-11-21T05:42:17.406Z,45.12
2018-11-21T05:47:19.353Z,47.95
2018-11-21T05:52:21.266Z,48.35
2018-11-21T05:57:23.217Z,42.35
2018-11-21T06:02:25.114Z,40.83
2018-11-21T06:07:26.993Z,44.55
2018-11-21T06:12:28.965Z,39.73
2018-11-21T06:17:30.928Z,41.80
2018-11-21T06:22:32.895Z,38.25
2018-11-21T06:27:34.868Z,40.95
2018-11-21T06:32:36.772Z,42.30
2018-11-21T06:37:39.206Z,37.90
2018-11-21T06:42:51.529Z,44.08
2018-11-21T06:47:53.526Z,42.25
2018-11-21T06:52:56.614Z,38.17
2018-11-21T06:57:58.536Z,39.25
2018-11-21T07:03:00.472Z,38.98
2018-11-21T07:08:02.432Z,37.73
2018-11-21T07:13:10.990Z,42.60
2018-11-21T07:18:08.393Z,45.35
2018-11-21T07:23:10.347Z,39.90
2018-11-21T07:28:13.054Z,37.67
2018-11-21T07:33:14.251Z,39.55
2018-11-21T07:38:16.916Z,42.23
2018-11-21T07:43:18.886Z,37.38
2018-11-21T07:48:20.937Z,39.67
2018-11-21T07:53:22.863Z,40.63
2018-11-21T07:58:25.690Z,37.15
2018-11-21T08:03:35.532Z,40.12
2018-11-21T08:09:12.347Z,38.28
2018-11-21T08:14:33.897Z,35.17
2018-11-21T08:19:55.361Z,38.40
2018-11-21T08:25:17.095Z,40.58
2018-11-21T08:30:19.017Z,39.15
2018-11-21T08:35:21.292Z,37.70
2018-11-21T08:40:23.263Z,35.55
2018-11-21T08:45:25.405Z,41.35
2018-11-21T08:50:27.476Z,34.23
2018-11-21T08:55:29.305Z,40.78
2018-11-21T09:00:31.304Z,38.45
2018-11-21T09:05:33.274Z,39.15
2018-11-21T09:15:36.847Z,33.67
2018-11-21T09:20:38.834Z,35.88
2018-11-21T09:25:40.733Z,36.13
2018-11-21T09:30:42.642Z,34.70
2018-11-21T09:35:44.800Z,34.15
2018-11-21T09:40:46.723Z,31.60
2018-11-21T09:45:48.687Z,30.52
2018-11-21T09:50:51.069Z,31.42
2018-11-21T09:55:53.031Z,30.65
2018-11-21T10:01:31.549Z,30.32
2018-11-21T10:06:36.134Z,27.00
2018-11-21T10:11:38.125Z,30.55
2018-11-21T10:16:40.049Z,32.30
2018-11-21T10:21:42.562Z,30.02
2018-11-21T10:26:44.623Z,26.23
2018-11-21T10:31:46.984Z,30.17
2018-11-21T10:36:49.096Z,31.20
2018-11-21T10:41:50.956Z,28.42
2018-11-21T10:46:53.207Z,30.72
2018-11-21T10:51:55.259Z,31.77
2018-11-21T10:56:57.339Z,30.48
2018-11-21T11:02:17.840Z,29.23
2018-11-21T11:07:39.635Z,29.55
2018-11-21T11:13:03.238Z,30.82
2018-11-21T11:18:21.039Z,32.75
2018-11-21T11:24:00.856Z,30.15
2018-11-21T11:29:25.440Z,35.20
2018-11-21T11:34:46.951Z,33.08
2018-11-21T11:40:11.415Z,24.12
2018-11-21T11:45:31.687Z,20.75
2018-11-21T11:50:56.008Z,17.87
2018-11-21T11:56:16.248Z,19.35
2018-11-21T12:01:36.336Z,20.45
2018-11-21T12:07:04.021Z,17.57
2018-11-21T12:12:40.517Z,18.73
2018-11-21T12:18:08.051Z,20.40
2018-11-21T12:23:32.162Z,20.25
2018-11-21T12:29:02.680Z,17.27
2018-11-21T12:34:30.358Z,19.92
2018-11-21T12:39:40.278Z,19.32
2018-11-21T12:45:00.232Z,20.37
2018-11-21T12:50:33.957Z,18.07
2018-11-21T12:56:01.159Z,16.10
2018-11-21T13:01:11.745Z,19.10
2018-11-21T13:06:27.660Z,17.80
2018-11-21T13:11:48.031Z,18.02
2018-11-21T13:17:12.806Z,16.90
2018-11-21T13:22:32.690Z,16.90
2018-11-21T13:27:54.244Z,15.28
2018-11-21T13:33:18.411Z,19.70
2018-11-21T13:38:42.926Z,15.05
2018-11-21T13:43:59.117Z,14.45
2018-11-21T13:49:23.496Z,16.50
2018-11-21T13:54:48.276Z,15.63
2018-11-21T13:59:50.392Z,14.35
2018-11-21T14:04:52.342Z,12.70
2018-11-21T14:09:54.306Z,14.23
2018-11-21T14:14:56.597Z,13.93
2018-11-21T14:19:58.662Z,14.23
2018-11-21T14:25:00.725Z,16.60
2018-11-21T14:30:03.430Z,15.28
2018-11-21T14:35:08.451Z,16.65
2018-11-21T14:40:12.458Z,16.97
2018-11-21T14:45:16.595Z,17.55
2018-11-21T14:50:23.424Z,16.32
2018-11-21T14:55:25.518Z,21.87
2018-11-21T15:00:27.455Z,16.90
2018-11-21T15:05:29.389Z,18.98
2018-11-21T15:10:34.489Z,19.77
2018-11-21T15:15:37.588Z,17.32
2018-11-21T15:20:39.884Z,17.27
2018-11-21T15:25:42.874Z,18.82
2018-11-21T15:30:46.019Z,18.05
2018-11-21T15:35:48.131Z,18.67
2018-11-21T15:40:50.484Z,19.57
2018-11-21T15:45:55.106Z,21.05
2018-11-21T15:50:58.887Z,22.17
2018-11-21T15:56:01.656Z,22.70
2018-11-21T16:01:04.482Z,22.52
2018-11-21T16:06:07.805Z,22.55
2018-11-21T16:11:10.723Z,22.20
2018-11-21T16:16:13.001Z,21.75
2018-11-21T16:21:16.125Z,22.70
2018-11-21T16:26:19.733Z,19.00
2018-11-21T16:31:21.655Z,22.80
2018-11-21T16:36:27.213Z,23.65
2018-11-21T16:41:25.879Z,21.00
2018-11-21T16:46:27.807Z,23.50
2018-11-21T16:51:29.787Z,22.22
2018-11-21T16:56:31.915Z,21.17
2018-11-21T17:01:34.320Z,20.92
2018-11-21T17:06:36.323Z,22.17
2018-11-21T17:11:38.253Z,22.07
2018-11-21T17:16:40.210Z,23.20
2018-11-21T17:21:42.585Z,25.43
2018-11-21T17:26:44.620Z,23.32
2018-11-21T17:31:46.752Z,21.02
2018-11-21T17:36:50.284Z,26.93
2018-11-21T17:41:52.283Z,22.80
2018-11-21T17:46:54.340Z,24.27
2018-11-21T17:57:06.442Z,27.75
2018-11-21T18:02:09.341Z,27.50
2018-11-21T18:07:11.388Z,22.93
2018-11-21T18:12:13.305Z,26.70
2018-11-21T18:17:15.803Z,24.23
2018-11-21T18:22:18.062Z,24.60
2018-11-21T18:27:20.153Z,23.67
2018-11-21T18:32:22.220Z,22.22
2018-11-21T18:37:24.127Z,22.45
2018-11-21T18:42:26.122Z,25.90
2018-11-21T18:47:28.178Z,26.05
2018-11-21T18:52:30.216Z,26.97
2018-11-21T18:57:54.430Z,27.25
2018-11-21T19:02:56.398Z,23.83
2018-11-21T19:07:58.418Z,25.77
2018-11-21T19:13:00.310Z,25.70
2018-11-21T19:18:02.257Z,23.80
2018-11-21T19:23:04.861Z,30.60
2018-11-21T19:28:07.140Z,29.23
2018-11-21T19:33:09.513Z,30.10
2018-11-21T19:38:11.750Z,27.02
2018-11-21T19:43:13.814Z,28.87
2018-11-21T19:48:15.887Z,31.02
2018-11-21T19:53:17.879Z,30.43
2018-11-21T19:58:20.187Z,31.50
2018-11-21T20:03:22.226Z,31.87
2018-11-21T20:08:24.853Z,29.37
2018-11-21T20:13:26.875Z,34.50
2018-11-21T20:18:28.909Z,32.70
2018-11-21T20:23:30.834Z,38.48
2018-11-21T20:28:49.527Z,46.47
2018-11-21T20:33:51.819Z,40.63
2018-11-21T20:38:53.874Z,42.67
2018-11-21T20:43:57.366Z,40.30
2018-11-21T20:49:11.445Z,39.38
2018-11-21T20:54:12.909Z,40.80
2018-11-21T20:59:15.353Z,42.17
2018-11-21T21:04:17.329Z,49.48
2018-11-21T21:09:19.792Z,42.38
2018-11-21T21:14:23.021Z,47.25
2018-11-21T21:19:26.216Z,51.08
2018-11-21T21:24:29.224Z,47.27
2018-11-21T21:29:31.808Z,49.08
2018-11-21T21:34:34.628Z,52.75
